Time;durP1;ratioP1;P1;durP2;ratioP2;P2;SDS_P1;SDS_P2;PMS_P1;PMS_P2;Temp;Humidity;BMP_temperature;BMP_pressure;BME280_temperature;BME280_humidity;BME280_pressure;Samples;Min_cycle;Max_cycle;Signal;HPM_P1;HPM_P2
2021/08/24 00:01:10;;;;;;;8.10;7.60;;;14.70;99.90;;;;;;4983931;28;20438;-93
2021/08/24 00:03:42;;;;;;;10.30;9.40;;;15.90;99.90;;;;;;4953766;28;20166;-92
2021/08/24 00:06:21;;;;;;;7.53;6.70;;;19.50;99.90;;;;;;4952562;28;20458;-93
2021/08/24 00:08:55;;;;;;;8.60;7.80;;;14.50;99.90;;;;;;5000429;28;20402;-90
2021/08/24 00:11:33;;;;;;;7.77;7.33;;;15.50;99.90;;;;;;4984554;28;20486;-93
2021/08/24 00:14:06;;;;;;;9.70;6.83;;;16.80;99.90;;;;;;4970078;28;20455;-92
2021/08/24 00:16:43;;;;;;;7.63;7.00;;;15.70;99.90;;;;;;5000787;28;20496;-93
2021/08/24 00:19:26;;;;;;;6.87;6.47;;;15.70;99.90;;;;;;4999258;28;20448;-93
2021/08/24 00:21:56;;;;;;;6.80;6.40;;;14.80;99.80;;;;;;4982158;28;20444;-93
2021/08/24 00:24:27;;;;;;;6.27;5.20;;;15.60;99.70;;;;;;4982049;28;20405;-93
2021/08/24 00:26:53;;;;;;;4.90;4.80;;;15.70;99.90;;;;;;4981654;28;20413;-93
2021/08/24 00:30:13;;;;;;;5.50;5.30;;;16.00;99.90;;;;;;4981460;28;20397;-93
2021/08/24 00:32:57;;;;;;;6.27;5.83;;;15.10;98.70;;;;;;4988666;28;20476;-93
2021/08/24 00:35:26;;;;;;;5.87;5.47;;;13.10;97.30;;;;;;4979575;28;20417;-92
2021/08/24 00:37:52;;;;;;;5.67;5.17;;;15.40;99.90;;;;;;4977405;28;20445;-93
2021/08/24 00:40:22;;;;;;;4.67;4.37;;;14.30;99.90;;;;;;4975351;28;20425;-93
2021/08/24 00:43:01;;;;;;;6.47;6.10;;;15.90;99.90;;;;;;4961003;28;20425;-93
2021/08/24 00:45:27;;;;;;;7.57;6.97;;;15.40;99.90;;;;;;4975852;28;20421;-93
2021/08/24 00:47:55;;;;;;;5.90;5.60;;;16.40;99.90;;;;;;4976832;28;20432;-92
2021/08/24 00:51:01;;;;;;;5.53;5.13;;;16.10;99.90;;;;;;4994494;28;20417;-93
2021/08/24 00:53:35;;;;;;;6.10;5.70;;;14.80;98.10;;;;;;4953914;28;20433;-93
2021/08/24 00:56:07;;;;;;;5.53;5.23;;;15.30;99.30;;;;;;4992672;28;20453;-93
2021/08/24 00:58:33;;;;;;;5.00;4.90;;;15.10;99.30;;;;;;4974639;28;20501;-93
2021/08/24 01:01:01;;;;;;;6.93;6.30;;;13.80;99.90;;;;;;4975307;28;20822;-94
2021/08/24 01:03:41;;;;;;;7.03;6.60;;;17.30;99.90;;;;;;4976184;28;20413;-92
2021/08/24 01:06:34;;;;;;;7.10;6.40;;;17.30;99.90;;;;;;4980902;28;20413;-93
2021/08/24 01:09:24;;;;;;;7.63;6.93;;;15.50;99.90;;;;;;4976420;28;20421;-93
2021/08/24 01:11:56;;;;;;;7.50;6.93;;;15.80;99.90;;;;;;4973885;28;20465;-92
2021/08/24 01:15:11;;;;;;;6.17;5.77;;;16.30;99.90;;;;;;4975880;28;20445;-91
2021/08/24 01:18:02;;;;;;;6.50;6.17;;;14.80;98.70;;;;;;4974621;28;20428;-93
2021/08/24 01:20:58;;;;;;;5.33;5.13;;;15.00;99.90;;;;;;4976783;28;20417;-92
2021/08/24 01:23:55;;;;;;;6.03;5.63;;;16.00;99.90;;;;;;4976395;28;20476;-93
2021/08/24 01:26:52;;;;;;;5.83;5.43;;;16.10;99.50;;;;;;4995806;28;20422;-93
2021/08/24 01:29:30;;;;;;;5.70;5.50;;;15.70;99.20;;;;;;4965557;28;20421;-94
2021/08/24 01:32:20;;;;;;;5.53;5.20;;;14.00;97.70;;;;;;4976486;28;20528;-93
2021/08/24 01:35:07;;;;;;;6.50;6.20;;;14.70;98.40;;;;;;4975823;28;20420;-93
2021/08/24 01:37:47;;;;;;;7.00;6.63;;;13.10;98.00;;;;;;4995179;28;20402;-93
2021/08/24 01:40:23;;;;;;;6.53;6.20;;;15.70;99.90;;;;;;4988954;28;20484;-93
2021/08/24 01:42:49;;;;;;;6.50;6.00;;;15.80;99.90;;;;;;4957683;28;20421;-94
2021/08/24 01:45:30;;;;;;;5.10;4.90;;;16.30;99.90;;;;;;4972999;28;20418;-94
2021/08/24 01:48:18;;;;;;;5.93;5.13;;;15.20;99.90;;;;;;4972792;28;20488;-93
2021/08/24 01:51:01;;;;;;;5.13;4.97;;;14.50;98.20;;;;;;4958388;28;20426;-93
2021/08/24 01:53:35;;;;;;;6.37;5.23;;;15.00;98.00;;;;;;4973213;28;20441;-93
2021/08/24 01:56:16;;;;;;;6.77;6.23;;;14.70;98.60;;;;;;4977248;28;20432;-93
2021/08/24 01:58:55;;;;;;;7.60;4.90;;;16.20;99.90;;;;;;4992857;28;20457;-93
2021/08/24 02:01:41;;;;;;;5.23;4.80;;;13.40;98.90;;;;;;4971362;28;20452;-93
2021/08/24 02:04:15;;;;;;;4.90;4.70;;;15.10;98.20;;;;;;4973098;28;20421;-93
2021/08/24 02:06:48;;;;;;;6.23;5.60;;;13.60;97.90;;;;;;4971381;28;20428;-92
2021/08/24 02:09:39;;;;;;;;;;;;;;;;;;;;;
2021/08/24 02:12:07;;;;;;;5.60;5.10;;;16.80;99.90;;;;;;4990692;28;20493;-94
2021/08/24 02:14:42;;;;;;;5.37;5.17;;;14.30;97.60;;;;;;4972015;28;20469;-93
2021/08/24 02:17:13;;;;;;;6.53;5.87;;;13.10;97.40;;;;;;4975055;28;20436;-94
2021/08/24 02:20:04;;;;;;;4.50;4.30;;;14.10;98.70;;;;;;4973187;28;20433;-92
2021/08/24 02:22:42;;;;;;;5.40;5.10;;;14.10;97.90;;;;;;4970935;28;20464;-92
2021/08/24 02:25:31;;;;;;;4.97;4.20;;;14.60;98.00;;;;;;4978133;28;20433;-92
2021/08/24 02:28:09;;;;;;;4.63;4.50;;;14.90;97.80;;;;;;4982535;28;20449;-93
2021/08/24 02:30:42;;;;;;;5.37;4.90;;;14.50;97.30;;;;;;4982427;28;20424;-93
2021/08/24 02:33:14;;;;;;;4.60;4.40;;;13.40;97.20;;;;;;4981769;28;20509;-92
2021/08/24 02:35:51;;;;;;;5.67;5.30;;;14.10;97.30;;;;;;4990697;28;20448;-92
2021/08/24 02:38:30;;;;;;;5.13;4.87;;;15.50;99.10;;;;;;4992980;28;20416;-92
2021/08/24 02:40:58;;;;;;;5.63;5.30;;;15.30;98.40;;;;;;4976300;28;20409;-92
2021/08/24 02:43:51;;;;;;;5.47;4.97;;;12.60;98.00;;;;;;4974352;28;20441;-93
2021/08/24 02:46:28;;;;;;;4.97;4.73;;;13.70;98.10;;;;;;4973114;28;20912;-93
2021/08/24 02:49:05;;;;;;;6.47;5.57;;;15.60;99.90;;;;;;4976447;28;20459;-92
2021/08/24 02:51:32;;;;;;;5.47;5.17;;;13.40;99.10;;;;;;4977835;28;20552;-93
2021/08/24 02:54:36;;;;;;;6.20;5.50;;;15.10;99.90;;;;;;4977803;28;20423;-93
2021/08/24 02:57:04;;;;;;;8.13;5.93;;;13.90;98.70;;;;;;4899290;29;20574;-92
2021/08/24 02:59:37;;;;;;;7.13;6.20;;;14.20;99.90;;;;;;4960943;28;20478;-93
2021/08/24 03:02:04;;;;;;;5.53;5.27;;;18.40;99.90;;;;;;4958979;28;20433;-93
2021/08/24 03:04:30;;;;;;;5.70;5.40;;;13.70;99.90;;;;;;4971591;28;20409;-92
2021/08/24 03:07:12;;;;;;;6.03;5.70;;;16.60;99.90;;;;;;4973637;28;20425;-93
2021/08/24 03:09:45;;;;;;;5.87;5.40;;;14.00;99.10;;;;;;4972743;28;20509;-93
2021/08/24 03:12:22;;;;;;;6.97;6.57;;;14.70;99.90;;;;;;4973506;28;20481;-93
2021/08/24 03:14:57;;;;;;;6.37;5.80;;;13.60;99.40;;;;;;4973325;28;20421;-93
2021/08/24 03:17:44;;;;;;;6.70;6.10;;;13.80;99.90;;;;;;4991648;28;20445;-92
2021/08/24 03:20:15;;;;;;;5.87;5.67;;;14.50;99.90;;;;;;4966386;28;20429;-93
2021/08/24 03:22:44;;;;;;;6.63;6.33;;;11.90;99.70;;;;;;4974998;28;20860;-93
2021/08/24 03:25:16;;;;;;;7.03;6.70;;;15.70;99.90;;;;;;4976536;28;20426;-92
2021/08/24 03:27:45;;;;;;;6.67;6.27;;;13.30;99.90;;;;;;4974867;28;20409;-93
2021/08/24 03:30:14;;;;;;;6.67;6.07;;;13.10;99.90;;;;;;4973883;28;20453;-92
2021/08/24 03:32:42;;;;;;;7.10;6.17;;;13.60;99.90;;;;;;4973836;28;20501;-93
2021/08/24 03:35:09;;;;;;;6.90;6.40;;;16.20;99.90;;;;;;4961027;28;20932;-91
2021/08/24 03:37:37;;;;;;;6.60;6.20;;;13.30;99.90;;;;;;4994228;28;20449;-92
2021/08/24 03:40:08;;;;;;;8.20;7.67;;;14.10;99.90;;;;;;4974572;28;20441;-93
2021/08/24 03:42:34;;;;;;;6.53;6.20;;;13.50;99.90;;;;;;4974443;28;20525;-92
2021/08/24 03:45:00;;;;;;;6.67;6.37;;;15.30;99.90;;;;;;4972732;28;20485;-93
2021/08/24 03:47:29;;;;;;;6.67;6.37;;;11.80;99.90;;;;;;4974652;28;20855;-92
2021/08/24 03:50:00;;;;;;;7.10;6.67;;;14.90;99.90;;;;;;4963510;28;20425;-94
2021/08/24 03:52:27;;;;;;;7.83;6.73;;;13.40;99.90;;;;;;4977246;28;20504;-92
2021/08/24 03:54:59;;;;;;;8.00;7.17;;;14.10;99.90;;;;;;4997920;28;20421;-93
2021/08/24 03:57:24;;;;;;;6.67;6.17;;;13.30;99.90;;;;;;4977454;28;20261;-94
2021/08/24 04:00:00;;;;;;;7.07;6.47;;;13.20;99.90;;;;;;4976648;28;20413;-94
2021/08/24 04:02:26;;;;;;;7.37;6.90;;;13.00;99.90;;;;;;4959967;28;20193;-93
2021/08/24 04:04:56;;;;;;;6.60;6.20;;;14.50;99.90;;;;;;4974010;28;20473;-93
2021/08/24 04:07:28;;;;;;;6.90;6.50;;;17.60;99.90;;;;;;4992507;28;20418;-94
2021/08/24 04:10:09;;;;;;;9.10;8.17;;;15.50;99.90;;;;;;4977578;28;20449;-94
2021/08/24 04:12:46;;;;;;;7.57;6.83;;;11.40;97.90;;;;;;4996707;28;20561;-92
2021/08/24 04:15:18;;;;;;;7.20;6.60;;;13.20;99.90;;;;;;4963940;28;20483;-93
2021/08/24 04:17:48;;;;;;;6.93;6.53;;;15.70;99.90;;;;;;4959606;28;20421;-93
2021/08/24 04:20:17;;;;;;;7.53;6.93;;;13.30;99.90;;;;;;4977354;28;20481;-94
2021/08/24 04:22:51;;;;;;;6.77;6.27;;;12.20;99.90;;;;;;4977558;28;20420;-92
2021/08/24 04:25:30;;;;;;;7.53;6.93;;;14.20;99.90;;;;;;4975428;28;20446;-93
2021/08/24 04:28:00;;;;;;;8.03;6.87;;;12.50;99.90;;;;;;4974663;28;20412;-94
2021/08/24 04:30:30;;;;;;;7.97;7.37;;;12.30;99.90;;;;;;4990608;28;20406;-93
2021/08/24 04:33:00;;;;;;;7.87;7.30;;;14.90;99.90;;;;;;4974318;28;20473;-92
2021/08/24 04:35:26;;;;;;;7.70;7.30;;;13.10;99.90;;;;;;4972986;28;20777;-92
2021/08/24 04:37:52;;;;;;;8.00;7.50;;;13.10;99.90;;;;;;4972053;28;20425;-94
2021/08/24 04:40:18;;;;;;;7.83;7.33;;;15.70;99.90;;;;;;4970301;28;20442;-92
2021/08/24 04:42:46;;;;;;;8.37;7.73;;;11.70;99.90;;;;;;4972306;28;20272;-93
2021/08/24 04:45:12;;;;;;;7.60;7.20;;;14.10;99.90;;;;;;4969552;28;20486;-93
2021/08/24 04:47:41;;;;;;;9.10;8.50;;;13.00;99.90;;;;;;4970603;28;20424;-94
2021/08/24 04:50:10;;;;;;;7.53;7.13;;;12.90;99.90;;;;;;4969081;28;20967;-92
2021/08/24 04:52:41;;;;;;;8.60;7.90;;;15.20;99.90;;;;;;4966273;28;20839;-93
2021/08/24 04:55:12;;;;;;;8.27;7.57;;;13.10;99.90;;;;;;4970038;28;20477;-91
2021/08/24 04:57:37;;;;;;;8.93;7.90;;;14.60;99.90;;;;;;4956500;28;20544;-91
2021/08/24 05:00:05;;;;;;;9.43;8.63;;;13.20;99.90;;;;;;4986096;28;20405;-93
2021/08/24 05:02:30;;;;;;;8.57;7.87;;;13.20;99.90;;;;;;4971105;28;20661;-90
2021/08/24 05:05:04;;;;;;;9.57;8.70;;;12.90;99.90;;;;;;4985058;28;20421;-91
2021/08/24 05:07:29;;;;;;;8.03;7.47;;;13.50;99.90;;;;;;4972274;28;20238;-93
2021/08/24 05:09:55;;;;;;;7.97;7.43;;;12.90;99.90;;;;;;4947626;29;20465;-91
2021/08/24 05:12:23;;;;;;;9.00;8.40;;;13.30;99.90;;;;;;4976745;28;20475;-93
2021/08/24 05:14:49;;;;;;;8.60;7.93;;;12.00;99.90;;;;;;4969784;28;20170;-94
2021/08/24 05:17:19;;;;;;;8.20;7.70;;;14.60;99.90;;;;;;4968416;28;20493;-91
2021/08/24 05:19:48;;;;;;;8.23;7.43;;;13.10;99.90;;;;;;4968326;28;20174;-94
2021/08/24 05:22:21;;;;;;;11.63;7.40;;;13.30;99.90;;;;;;4953068;28;20884;-92
2021/08/24 05:24:49;;;;;;;8.27;7.43;;;12.60;99.90;;;;;;4965448;28;20429;-91
2021/08/24 05:27:18;;;;;;;9.57;8.57;;;14.50;99.90;;;;;;4953826;28;21103;-90
2021/08/24 05:29:47;;;;;;;13.10;11.90;;;13.30;99.90;;;;;;4966844;28;20433;-88
2021/08/24 05:32:16;;;;;;;8.63;8.03;;;10.30;98.50;;;;;;4964232;28;20969;-87
2021/08/24 05:34:45;;;;;;;8.70;8.10;;;15.10;99.90;;;;;;4963992;28;20414;-92
2021/08/24 05:37:13;;;;;;;8.70;7.60;;;12.80;99.30;;;;;;4946947;28;20783;-87
2021/08/24 05:39:41;;;;;;;9.67;8.63;;;11.60;99.90;;;;;;4947790;29;20414;-88
2021/08/24 05:42:13;;;;;;;7.93;7.50;;;13.60;99.90;;;;;;4966175;29;20406;-89
2021/08/24 05:44:39;;;;;;;8.50;7.90;;;16.40;99.90;;;;;;4969655;28;20489;-90
2021/08/24 05:47:08;;;;;;;8.93;8.30;;;;;;;;;;4969202;28;20470;-87
2021/08/24 05:49:44;;;;;;;9.20;8.30;;;14.00;99.00;;;;;;4969976;28;20182;-86
2021/08/24 05:52:10;;;;;;;8.83;8.13;;;12.60;98.50;;;;;;4957565;29;20465;-87
2021/08/24 05:54:40;;;;;;;8.43;7.70;;;15.30;99.90;;;;;;4964690;28;20450;-90
2021/08/24 05:57:06;;;;;;;8.10;7.40;;;14.80;98.10;;;;;;4946175;28;20237;-88
2021/08/24 05:59:36;;;;;;;9.50;8.60;;;15.10;98.30;;;;;;4945134;29;20441;-91
2021/08/24 06:02:05;;;;;;;8.03;7.53;;;15.60;95.10;;;;;;4961737;28;20402;-90
2021/08/24 06:04:31;;;;;;;14.63;8.70;;;16.00;94.70;;;;;;4947548;28;20429;-87
2021/08/24 06:06:56;;;;;;;9.60;8.80;;;14.80;91.40;;;;;;4963692;28;20409;-88
2021/08/24 06:09:49;;;;;;;12.37;10.20;;;19.30;93.00;;;;;;4948887;29;20224;-93
2021/08/24 06:12:25;;;;;;;14.30;12.10;;;17.50;86.00;;;;;;4969341;28;20301;-90
2021/08/24 06:14:52;;;;;;;13.83;12.53;;;19.40;89.20;;;;;;4949721;28;20422;-90
2021/08/24 06:17:52;;;;;;;20.03;16.07;;;19.90;88.20;;;;;;4948958;29;20429;-91
2021/08/24 06:20:17;;;;;;;24.40;17.10;;;21.40;82.50;;;;;;4956980;29;20414;-90
2021/08/24 06:22:43;;;;;;;29.73;19.97;;;19.10;85.80;;;;;;4972352;28;20432;-95
2021/08/24 06:25:40;;;;;;;;;;;;;;;;;;;;;
2021/08/24 06:28:05;;;;;;;32.30;21.00;;;20.10;72.50;;;;;;4971302;28;20646;-91
2021/08/24 06:33:02;;;;;;;25.43;18.13;;;21.00;66.50;;;;;;4946776;28;20242;-91
2021/08/24 06:35:31;;;;;;;23.53;17.70;;;20.30;75.40;;;;;;4936497;29;20423;-88
2021/08/24 06:37:56;;;;;;;19.30;15.80;;;20.80;61.60;;;;;;4951958;29;20416;-92
2021/08/24 06:40:22;;;;;;;21.87;18.43;;;21.80;65.10;;;;;;4932629;29;20427;-91
2021/08/24 06:42:55;;;;;;;26.73;16.17;;;21.40;64.50;;;;;;4945307;29;20182;-90
2021/08/24 06:45:33;;;;;;;20.53;15.77;;;23.20;67.40;;;;;;4933053;29;20183;-92
2021/08/24 06:47:59;;;;;;;26.87;16.80;;;;;;;;;;4933337;29;20442;-89
2021/08/24 06:50:31;;;;;;;21.40;16.20;;;21.80;58.70;;;;;;4953026;29;20411;-88
2021/08/24 06:52:58;;;;;;;25.23;16.03;;;23.40;60.60;;;;;;4927717;29;20479;-91
2021/08/24 06:55:25;;;;;;;19.20;15.80;;;22.50;57.70;;;;;;4591989;29;9999864;-91
2021/08/24 06:57:53;;;;;;;18.97;16.60;;;21.70;57.50;;;;;;4934907;29;20259;-90
2021/08/24 07:00:37;;;;;;;26.33;18.40;;;22.00;59.30;;;;;;4934436;29;20435;-91
2021/08/24 07:03:05;;;;;;;26.23;18.77;;;20.60;56.50;;;;;;4939993;29;20419;-92
2021/08/24 07:05:32;;;;;;;23.57;17.37;;;23.00;58.20;;;;;;4938016;29;20411;-88
2021/08/24 07:07:58;;;;;;;23.47;17.97;;;25.40;58.10;;;;;;4929691;29;20440;-89
2021/08/24 07:12:59;;;;;;;19.30;15.17;;;;;;;;;;5083678;23;20249;-87
2021/08/24 07:15:28;;;;;;;20.93;17.60;;;22.90;55.50;;;;;;4983693;28;20437;-90
2021/08/24 07:18:06;;;;;;;21.17;16.37;;;24.90;59.60;;;;;;5000205;28;20418;-89
2021/08/24 07:21:07;;;;;;;20.50;16.03;;;23.60;54.50;;;;;;4844505;23;10002227;-89
2021/08/24 07:23:38;;;;;;;45.63;18.73;;;23.50;54.00;;;;;;4970498;28;20540;-91
2021/08/24 07:26:05;;;;;;;23.07;16.90;;;23.60;54.30;;;;;;5282571;23;20508;-89
2021/08/24 07:31:48;;;;;;;19.00;16.10;;;24.30;53.10;;;;;;4919982;29;20484;-93
2021/08/24 07:34:23;;;;;;;19.80;16.10;;;25.10;52.20;;;;;;5007806;23;20657;-87
2021/08/24 07:36:51;;;;;;;21.20;17.20;;;26.60;53.10;;;;;;4978953;28;20417;-91
2021/08/24 07:39:27;;;;;;;20.60;15.07;;;24.60;53.20;;;;;;4992024;28;20425;-93
2021/08/24 07:41:53;;;;;;;19.23;14.40;;;24.70;51.60;;;;;;4974269;28;20627;-86
2021/08/24 07:44:31;;;;;;;23.30;13.50;;;24.50;52.60;;;;;;4969804;28;20413;-88
2021/08/24 07:47:01;;;;;;;18.50;14.07;;;24.40;51.80;;;;;;4989742;28;20205;-85
2021/08/24 07:49:29;;;;;;;17.57;13.50;;;25.10;54.10;;;;;;4973117;28;20401;-90
2021/08/24 07:52:03;;;;;;;13.17;11.87;;;27.90;51.50;;;;;;4974428;28;20588;-92
2021/08/24 07:54:32;;;;;;;12.03;10.77;;;28.20;50.30;;;;;;5009365;28;20429;-88
2021/08/24 07:57:34;;;;;;;11.43;9.30;;;25.00;48.50;;;;;;4986348;28;20465;-91
2021/08/24 08:00:10;;;;;;;8.13;7.40;;;26.30;47.40;;;;;;5006109;28;20424;-90
2021/08/24 08:02:37;;;;;;;7.67;6.97;;;27.30;47.90;;;;;;4989750;28;20423;-90
2021/08/24 08:05:03;;;;;;;7.40;6.77;;;29.40;47.90;;;;;;4989502;28;20441;-85
2021/08/24 08:07:55;;;;;;;7.60;7.10;;;27.00;47.50;;;;;;5010185;28;20420;-92
2021/08/24 08:10:21;;;;;;;5.60;5.40;;;26.20;44.30;;;;;;4993057;28;20423;-84
2021/08/24 08:13:05;;;;;;;7.10;6.50;;;26.70;48.40;;;;;;4992328;28;20460;-87
2021/08/24 08:15:38;;;;;;;5.57;5.27;;;28.20;48.00;;;;;;4993879;28;20439;-92
2021/08/24 08:18:08;;;;;;;7.30;5.63;;;27.00;45.20;;;;;;4987688;28;20488;-88
2021/08/24 08:20:37;;;;;;;6.30;5.47;;;28.30;46.70;;;;;;5010181;28;20485;-89
2021/08/24 08:23:09;;;;;;;5.40;4.30;;;27.50;44.10;;;;;;4990361;28;20431;-90
2021/08/24 08:25:35;;;;;;;4.20;4.10;;;27.90;44.50;;;;;;5003832;28;20416;-87
2021/08/24 08:28:10;;;;;;;2.77;2.77;;;30.60;45.20;;;;;;4990595;28;20464;-91
2021/08/24 08:30:45;;;;;;;3.97;3.60;;;29.50;38.50;;;;;;4990592;28;20262;-91
2021/08/24 08:33:24;;;;;;;;;;;;;;;;;;;;;
2021/08/24 08:35:53;;;;;;;3.23;3.03;;;28.60;38.80;;;;;;5004261;28;20513;-89
2021/08/24 08:38:23;;;;;;;2.60;2.60;;;28.00;38.10;;;;;;4989804;28;20752;-89
2021/08/24 08:41:06;;;;;;;2.87;2.67;;;28.70;38.20;;;;;;5012423;28;20435;-87
2021/08/24 08:43:55;;;;;;;4.33;3.10;;;29.70;37.80;;;;;;5002797;28;20444;-86
2021/08/24 08:46:35;;;;;;;5.70;3.73;;;32.30;38.30;;;;;;5007794;28;20420;-88
2021/08/24 08:49:23;;;;;;;3.57;3.33;;;28.50;37.00;;;;;;4987314;28;20429;-87
2021/08/24 08:52:23;;;;;;;2.77;2.57;;;28.90;36.40;;;;;;4983122;28;20464;-87
2021/08/24 08:55:19;;;;;;;2.90;2.80;;;28.80;35.20;;;;;;4970718;28;20430;-92
2021/08/24 08:58:15;;;;;;;3.63;3.13;;;28.40;37.50;;;;;;5003177;28;20431;-87
2021/08/24 09:00:55;;;;;;;3.97;3.70;;;27.10;38.30;;;;;;4973407;28;20542;-89
2021/08/24 09:04:00;;;;;;;3.03;2.77;;;28.00;38.00;;;;;;5007192;28;20421;-92
2021/08/24 09:06:47;;;;;;;4.40;2.33;;;27.50;37.00;;;;;;4989335;28;20419;-87
2021/08/24 09:09:22;;;;;;;4.40;2.70;;;28.40;38.40;;;;;;5003320;28;20401;-88
2021/08/24 09:12:00;;;;;;;3.07;2.97;;;26.50;38.50;;;;;;5005157;28;20444;-91
2021/08/24 09:14:38;;;;;;;4.50;4.30;;;27.60;39.00;;;;;;5008725;28;20408;-91
2021/08/24 09:17:19;;;;;;;2.77;2.77;;;28.10;39.00;;;;;;5005246;28;20459;-86
2021/08/24 09:20:10;;;;;;;2.83;2.70;;;28.30;37.30;;;;;;4987034;28;20436;-88
2021/08/24 09:22:38;;;;;;;2.53;2.43;;;28.60;36.50;;;;;;4985896;28;20435;-91
2021/08/24 09:25:16;;;;;;;3.33;3.23;;;27.10;36.00;;;;;;4971505;28;20492;-91
2021/08/24 09:28:05;;;;;;;2.90;2.80;;;27.10;36.90;;;;;;4988396;28;20404;-84
2021/08/24 09:30:40;;;;;;;3.30;2.50;;;27.80;36.90;;;;;;4971569;28;20437;-91
2021/08/24 09:33:12;;;;;;;2.53;2.43;;;28.90;35.70;;;;;;4983022;28;20483;-88
2021/08/24 09:35:51;;;;;;;2.97;2.87;;;28.90;35.00;;;;;;4945994;29;20442;-88
2021/08/24 09:38:19;;;;;;;2.53;2.53;;;28.60;34.70;;;;;;4944258;29;20426;-88
2021/08/24 09:40:48;;;;;;;2.70;2.60;;;29.00;35.50;;;;;;4962918;29;20409;-88
2021/08/24 09:43:38;;;;;;;3.07;2.97;;;28.30;34.80;;;;;;4963515;29;20414;-90
2021/08/24 09:46:12;;;;;;;3.40;3.20;;;28.10;35.70;;;;;;4963609;28;20418;-90
2021/08/24 09:49:07;;;;;;;4.53;4.23;;;29.00;35.00;;;;;;4966665;29;20496;-85
2021/08/24 09:52:11;;;;;;;3.97;3.77;;;29.20;34.50;;;;;;4964839;29;20962;-92
2021/08/24 09:54:49;;;;;;;4.20;4.00;;;28.90;33.80;;;;;;4949035;29;20477;-92
2021/08/24 09:58:00;;;;;;;;;;;;;;;;;;;;;
2021/08/24 10:00:31;;;;;;;3.30;3.03;;;28.10;34.60;;;;;;4989805;28;20441;-90
2021/08/24 10:03:19;;;;;;;4.47;4.20;;;27.20;34.30;;;;;;4993453;28;20385;-91
2021/08/24 10:06:43;;;;;;;3.40;3.30;;;27.20;34.40;;;;;;4989817;28;20531;-91
2021/08/24 10:09:31;;;;;;;4.40;4.20;;;25.90;33.50;;;;;;4970980;28;20448;-93
2021/08/24 10:12:13;;;;;;;4.17;3.87;;;;;;;;;;4968310;28;20580;-88
2021/08/24 10:14:39;;;;;;;3.63;3.43;;;28.40;32.80;;;;;;4963705;28;20429;-89
2021/08/24 10:17:13;;;;;;;3.80;3.60;;;28.10;33.80;;;;;;4962490;28;20527;-87
2021/08/24 10:19:43;;;;;;;3.97;3.77;;;28.20;34.80;;;;;;4961745;28;20436;-91
2021/08/24 10:22:16;;;;;;;3.33;3.20;;;29.80;35.50;;;;;;4982047;28;20420;-86
2021/08/24 10:25:09;;;;;;;4.80;4.40;;;29.00;34.40;;;;;;4963834;28;20421;-88
2021/08/24 10:27:56;;;;;;;3.83;3.47;;;29.20;33.80;;;;;;4977724;28;20517;-86
2021/08/24 10:30:43;;;;;;;3.60;3.40;;;28.80;34.80;;;;;;4982125;28;20401;-87
2021/08/24 10:33:37;;;;;;;15.83;8.20;;;30.60;35.10;;;;;;4969007;28;20477;-85
2021/08/24 10:36:36;;;;;;;5.33;4.83;;;30.90;35.00;;;;;;4962377;28;20430;-91
2021/08/24 10:39:16;;;;;;;4.63;4.23;;;30.10;33.60;;;;;;4978950;28;20429;-87
2021/08/24 10:41:47;;;;;;;26.23;20.17;;;30.60;33.00;;;;;;4946634;29;20430;-90
2021/08/24 10:44:25;;;;;;;12.43;9.97;;;30.90;33.80;;;;;;4946335;29;20458;-87
2021/08/24 10:46:58;;;;;;;4.80;4.40;;;29.10;33.30;;;;;;4959056;29;20413;-85
2021/08/24 10:49:24;;;;;;;3.30;3.20;;;29.60;33.50;;;;;;4978808;28;20634;-87
2021/08/24 10:52:09;;;;;;;2.87;2.77;;;30.30;33.30;;;;;;4979024;28;20499;-85
2021/08/24 10:54:43;;;;;;;3.37;3.27;;;29.30;33.50;;;;;;4979633;28;20870;-90
2021/08/24 10:57:22;;;;;;;7.60;3.87;;;29.60;33.00;;;;;;4961449;28;20439;-89
2021/08/24 11:00:08;;;;;;;13.93;9.10;;;29.80;35.00;;;;;;4982951;28;20517;-82
2021/08/24 11:02:39;;;;;;;6.37;4.03;;;28.30;35.00;;;;;;4622340;28;10000079;-88
2021/08/24 11:05:37;;;;;;;7.83;7.07;;;29.20;33.90;;;;;;4981401;28;20254;-87
2021/08/24 11:08:17;;;;;;;20.77;11.63;;;29.50;33.00;;;;;;4981060;28;20563;-82
2021/08/24 11:11:02;;;;;;;16.13;10.20;;;28.60;33.10;;;;;;4982104;28;20413;-88
2021/08/24 11:13:44;;;;;;;5.47;4.00;;;29.10;34.80;;;;;;4963470;28;20999;-89
2021/08/24 11:16:26;;;;;;;4.07;3.70;;;28.80;32.00;;;;;;4966603;28;20414;-90
2021/08/24 11:19:03;;;;;;;3.40;3.30;;;28.70;33.80;;;;;;4982124;28;20763;-88
2021/08/24 11:21:35;;;;;;;3.47;3.37;;;28.60;33.40;;;;;;4946335;28;20515;-89
2021/08/24 11:24:12;;;;;;;3.10;3.03;;;29.50;33.20;;;;;;4979720;28;20535;-89
2021/08/24 11:27:22;;;;;;;4.17;3.97;;;30.70;32.50;;;;;;4964770;28;20420;-88
2021/08/24 11:30:14;;;;;;;;;;;;;;;;;;;;;
2021/08/24 11:32:48;;;;;;;5.13;3.70;;;31.10;32.40;;;;;;4988234;28;20556;-88
2021/08/24 11:35:21;;;;;;;4.30;4.00;;;30.40;31.80;;;;;;5002777;28;20539;-88
2021/08/24 11:37:53;;;;;;;2.50;2.50;;;30.10;32.00;;;;;;4986551;28;20425;-95
2021/08/24 11:41:15;;;;;;;2.97;2.97;;;32.10;33.20;;;;;;5006986;28;20425;-88
2021/08/24 11:44:13;;;;;;;3.57;3.17;;;31.00;32.00;;;;;;5003978;28;20523;-95
2021/08/24 11:47:05;;;;;;;3.80;3.50;;;30.70;31.50;;;;;;5003060;28;20440;-89
2021/08/24 11:49:59;;;;;;;3.40;3.20;;;30.60;32.20;;;;;;4987479;28;20413;-94
2021/08/24 11:52:50;;;;;;;2.73;2.73;;;31.80;31.60;;;;;;5006533;28;20460;-89
2021/08/24 11:55:34;;;;;;;2.90;2.90;;;31.20;32.10;;;;;;4987670;28;20512;-90
2021/08/24 11:58:35;;;;;;;2.83;2.73;;;30.10;32.50;;;;;;5000921;28;20417;-88
2021/08/24 12:01:23;;;;;;;7.53;6.73;;;30.50;32.60;;;;;;4987904;28;20442;-89
2021/08/24 12:04:21;;;;;;;3.03;2.93;;;31.00;32.70;;;;;;4991797;28;20436;-89
2021/08/24 12:06:57;;;;;;;2.30;2.30;;;31.10;32.50;;;;;;4983621;28;20428;-91
2021/08/24 12:09:41;;;;;;;4.30;4.00;;;31.30;33.10;;;;;;5007664;28;20495;-94
2021/08/24 12:12:36;;;;;;;2.47;2.40;;;30.70;31.80;;;;;;4977507;28;20449;-91
2021/08/24 12:15:16;;;;;;;3.07;3.07;;;31.00;32.20;;;;;;4986234;28;20437;-88
2021/08/24 12:18:22;;;;;;;3.20;3.00;;;31.40;30.50;;;;;;4971666;28;20421;-88
2021/08/24 12:20:55;;;;;;;4.63;4.30;;;31.20;32.10;;;;;;4987453;28;20432;-90
2021/08/24 12:23:50;;;;;;;3.43;3.33;;;31.30;31.90;;;;;;4969112;28;20859;-89
2021/08/24 12:26:31;;;;;;;5.90;3.70;;;30.70;31.10;;;;;;4985330;28;20905;-93
2021/08/24 12:29:21;;;;;;;3.23;2.67;;;30.80;31.70;;;;;;4969465;28;20453;-91
2021/08/24 12:31:56;;;;;;;3.00;2.90;;;31.60;32.00;;;;;;4984339;28;20452;-88
2021/08/24 12:34:34;;;;;;;3.43;3.33;;;32.00;32.90;;;;;;5002284;28;20459;-87
2021/08/24 12:37:28;;;;;;;3.00;2.90;;;31.00;31.70;;;;;;4985673;28;21088;-87
2021/08/24 12:39:56;;;;;;;3.57;3.37;;;30.70;31.80;;;;;;5000284;28;20432;-91
2021/08/24 12:42:35;;;;;;;3.93;3.27;;;32.40;32.90;;;;;;4983742;28;20428;-90
2021/08/24 12:45:00;;;;;;;4.60;4.20;;;32.50;31.40;;;;;;4981841;28;20432;-90
2021/08/24 12:48:02;;;;;;;4.57;4.13;;;32.50;30.90;;;;;;4987108;28;20412;-92
2021/08/24 12:50:28;;;;;;;3.97;3.87;;;;;;;;;;4986143;28;20696;-89
2021/08/24 12:53:57;;;;;;;3.23;2.80;;;30.50;32.20;;;;;;5002089;28;20511;-88
2021/08/24 12:57:17;;;;;;;3.37;3.17;;;30.90;31.00;;;;;;4920622;29;20412;-91
2021/08/24 12:59:57;;;;;;;4.27;3.80;;;30.60;31.80;;;;;;4870318;29;20450;-89
2021/08/24 13:02:36;;;;;;;2.90;2.90;;;30.20;32.10;;;;;;4924666;29;20483;-92
2021/08/24 13:05:29;;;;;;;4.23;3.97;;;30.00;32.00;;;;;;4973703;28;20741;-90
2021/08/24 13:08:36;;;;;;;;;;;;;;;;;;;;;
2021/08/24 13:11:31;;;;;;;3.07;2.97;;;29.80;32.10;;;;;;4985489;28;20851;-86
2021/08/24 13:14:02;;;;;;;2.50;2.27;;;30.00;31.80;;;;;;4983917;28;20433;-91
2021/08/24 13:16:36;;;;;;;2.80;2.60;;;30.10;32.90;;;;;;4950834;28;20433;-90
2021/08/24 13:19:05;;;;;;;3.23;3.13;;;29.70;32.30;;;;;;4981245;28;20457;-90
2021/08/24 13:21:54;;;;;;;3.87;3.57;;;31.30;33.20;;;;;;4982336;28;20420;-93
2021/08/24 13:24:26;;;;;;;2.97;2.87;;;30.80;31.30;;;;;;4981694;28;20420;-93
2021/08/24 13:27:31;;;;;;;2.53;2.43;;;30.90;32.10;;;;;;4982270;28;20417;-88
2021/08/24 13:30:03;;;;;;;2.90;2.80;;;30.50;31.20;;;;;;4907094;29;20416;-90
2021/08/24 13:32:41;;;;;;;3.70;3.40;;;30.50;32.10;;;;;;4976320;28;20486;-88
2021/08/24 13:35:22;;;;;;;3.17;3.07;;;30.50;32.20;;;;;;4986857;28;20482;-90
2021/08/24 13:37:50;;;;;;;5.00;2.60;;;29.80;32.90;;;;;;4620703;28;10000688;-89
2021/08/24 13:40:24;;;;;;;3.87;3.67;;;28.90;33.50;;;;;;4982671;28;20424;-92
2021/08/24 13:42:52;;;;;;;8.13;3.00;;;28.60;33.70;;;;;;4965066;28;20459;-89
2021/08/24 13:45:37;;;;;;;3.50;3.27;;;29.00;36.20;;;;;;4982807;28;20418;-90
2021/08/24 13:48:10;;;;;;;2.60;2.40;;;27.80;35.00;;;;;;4984749;28;20423;-92
2021/08/24 13:50:40;;;;;;;2.07;2.07;;;28.10;34.40;;;;;;4963818;28;20529;-91
2021/08/24 13:53:29;;;;;;;4.47;2.90;;;29.30;34.30;;;;;;4965249;28;20526;-88
2021/08/24 13:56:00;;;;;;;3.50;2.40;;;28.70;33.80;;;;;;4951934;28;20453;-90